createdAt,value
2022-12-04T00:00:36.076Z,93.30
2022-12-04T00:03:03.381Z,93.80
2022-12-04T00:05:30.654Z,93.70
2022-12-04T00:07:57.852Z,93.70
2022-12-04T00:10:25.067Z,93.70
2022-12-04T00:12:52.621Z,93.30
2022-12-04T00:15:27.369Z,93.30
2022-12-04T00:17:55.086Z,93.10
2022-12-04T00:20:23.186Z,93.20
2022-12-04T00:22:50.639Z,93.00
2022-12-04T00:25:18.508Z,93.10
2022-12-04T00:27:45.684Z,92.90
2022-12-04T00:30:13.395Z,92.60
2022-12-04T00:32:40.678Z,92.40
2022-12-04T00:35:10.203Z,92.50
2022-12-04T00:37:37.554Z,92.70
2022-12-04T00:40:08.357Z,92.70
2022-12-04T00:42:35.663Z,92.40
2022-12-04T00:45:02.900Z,92.40
2022-12-04T00:47:33.931Z,92.20
2022-12-04T00:50:01.655Z,91.90
2022-12-04T00:52:31.712Z,91.80
2022-12-04T00:54:59.111Z,91.70
2022-12-04T00:57:26.569Z,91.90
2022-12-04T00:59:54.200Z,91.60
2022-12-04T01:02:21.963Z,91.70
2022-12-04T01:04:52.163Z,91.50
2022-12-04T01:07:19.410Z,91.70
2022-12-04T01:09:46.565Z,91.90
2022-12-04T01:12:19.057Z,91.70
2022-12-04T01:14:48.003Z,91.40
2022-12-04T01:17:15.260Z,91.40
2022-12-04T01:19:42.450Z,91.50
2022-12-04T01:22:10.002Z,91.70
2022-12-04T01:24:37.332Z,91.80
2022-12-04T01:27:07.001Z,91.40
2022-12-04T01:29:34.655Z,91.70
2022-12-04T01:32:04.599Z,91.50
2022-12-04T01:34:31.907Z,91.30
2022-12-04T01:36:59.240Z,91.40
2022-12-04T01:39:26.497Z,91.40
2022-12-04T01:41:53.824Z,91.40
2022-12-04T01:44:27.151Z,91.40
2022-12-04T01:46:59.415Z,91.50
2022-12-04T01:49:31.501Z,91.60
2022-12-04T01:52:15.909Z,91.30
2022-12-04T01:54:46.428Z,91.50
2022-12-04T01:57:22.362Z,91.30
2022-12-04T02:00:24.542Z,91.30
2022-12-04T02:02:51.874Z,91.40
2022-12-04T02:05:25.241Z,91.60
2022-12-04T02:07:57.378Z,91.70
2022-12-04T02:10:47.826Z,91.60
2022-12-04T02:13:56.730Z,91.60
2022-12-04T02:16:42.590Z,91.80
2022-12-04T02:19:49.345Z,91.80
2022-12-04T02:22:38.256Z,91.70
2022-12-04T02:25:36.374Z,91.70
2022-12-04T02:28:19.498Z,91.80
2022-12-04T02:30:48.875Z,91.80
2022-12-04T02:33:43.108Z,91.70
2022-12-04T02:36:23.306Z,91.50
2022-12-04T02:39:16.629Z,91.70
2022-12-04T02:41:57.488Z,91.90
2022-12-04T02:44:35.509Z,91.50
2022-12-04T02:47:09.331Z,91.60
2022-12-04T02:49:44.559Z,91.70
2022-12-04T02:52:16.579Z,91.60
2022-12-04T02:54:49.368Z,91.40
2022-12-04T02:57:23.115Z,91.20
2022-12-04T02:59:52.821Z,91.40
2022-12-04T03:02:39.072Z,91.20
2022-12-04T03:05:12.396Z,91.60
2022-12-04T03:07:48.319Z,91.70
2022-12-04T03:10:30.383Z,91.60
2022-12-04T03:13:09.653Z,91.60
2022-12-04T03:15:48.310Z,91.60
2022-12-04T03:18:34.270Z,91.60
2022-12-04T03:21:10.671Z,91.70
2022-12-04T03:23:47.569Z,92.00
2022-12-04T03:26:43.576Z,92.10
2022-12-04T03:29:16.503Z,92.20
2022-12-04T03:31:49.810Z,92.30
2022-12-04T03:34:25.978Z,92.40
2022-12-04T03:36:58.905Z,92.40
2022-12-04T03:39:43.729Z,92.70
2022-12-04T03:42:23.175Z,92.80
2022-12-04T03:45:15.090Z,92.90
2022-12-04T03:48:23.247Z,92.90
2022-12-04T03:51:13.594Z,93.10
2022-12-04T03:53:50.720Z,93.20
2022-12-04T03:56:27.790Z,93.30
2022-12-04T03:59:05.134Z,93.40
2022-12-04T04:01:36.967Z,93.60
2022-12-04T04:04:08.133Z,93.70
2022-12-04T04:06:40.423Z,93.90
2022-12-04T04:09:15.134Z,94.00
2022-12-04T04:12:11.387Z,94.00
2022-12-04T04:15:13.962Z,94.00
2022-12-04T04:18:03.492Z,94.20
2022-12-04T04:21:06.944Z,94.40
2022-12-04T04:24:01.241Z,94.50
2022-12-04T04:26:32.623Z,94.80
2022-12-04T04:29:03.018Z,95.10
2022-12-04T04:31:59.710Z,95.20
2022-12-04T04:34:44.193Z,95.00
2022-12-04T04:37:43.713Z,95.10
2022-12-04T04:40:30.583Z,95.10
2022-12-04T04:43:21.478Z,95.00
2022-12-04T04:46:02.852Z,95.10
2022-12-04T04:48:36.981Z,95.00
2022-12-04T04:51:05.029Z,94.90
2022-12-04T04:54:05.302Z,94.90
2022-12-04T04:56:32.421Z,94.80
2022-12-04T04:58:59.505Z,94.80
2022-12-04T05:01:28.885Z,94.90
2022-12-04T05:03:56.359Z,94.80
2022-12-04T05:06:26.058Z,94.80
2022-12-04T05:08:53.379Z,94.80
2022-12-04T05:11:20.708Z,94.80
2022-12-04T05:13:48.105Z,95.10
2022-12-04T05:16:18.142Z,95.10
2022-12-04T05:19:05.915Z,95.00
2022-12-04T05:21:34.851Z,95.10
2022-12-04T05:24:04.579Z,95.20
2022-12-04T05:26:32.053Z,95.20
2022-12-04T05:28:59.669Z,95.00
2022-12-04T05:31:26.768Z,95.30
2022-12-04T05:33:56.616Z,95.20
2022-12-04T05:36:24.177Z,95.10
2022-12-04T05:38:51.347Z,95.00
2022-12-04T05:41:18.636Z,94.80
2022-12-04T05:43:48.932Z,94.80
2022-12-04T05:46:16.991Z,94.80
2022-12-04T05:48:44.213Z,94.90
2022-12-04T05:51:13.699Z,94.60
2022-12-04T05:53:41.199Z,94.50
2022-12-04T05:56:09.313Z,94.40
2022-12-04T05:58:38.213Z,94.40
2022-12-04T06:01:13.876Z,94.40
2022-12-04T06:03:41.429Z,94.40
2022-12-04T06:06:22.159Z,94.50
2022-12-04T06:08:55.165Z,94.20
2022-12-04T06:11:35.425Z,94.00
2022-12-04T06:14:05.118Z,93.70
2022-12-04T06:16:35.673Z,93.60
2022-12-04T06:19:07.459Z,93.80
2022-12-04T06:21:38.305Z,93.80
2022-12-04T06:24:06.077Z,93.70
2022-12-04T06:26:33.860Z,93.90
2022-12-04T06:29:01.281Z,93.80
2022-12-04T06:31:30.183Z,93.40
2022-12-04T06:34:01.504Z,93.60
2022-12-04T06:36:28.826Z,93.70
2022-12-04T06:38:57.841Z,93.50
2022-12-04T06:41:26.406Z,93.40
2022-12-04T06:43:53.761Z,93.40
2022-12-04T06:46:23.328Z,93.50
2022-12-04T06:48:51.385Z,93.60
2022-12-04T06:51:21.483Z,93.60
2022-12-04T06:53:49.357Z,93.80
2022-12-04T06:56:25.211Z,93.50
2022-12-04T06:58:54.478Z,93.20
2022-12-04T07:01:24.655Z,93.10
2022-12-04T07:03:52.403Z,93.00
2022-12-04T07:06:32.052Z,93.00
2022-12-04T07:09:12.824Z,93.10
2022-12-04T07:11:41.401Z,93.20
2022-12-04T07:14:09.037Z,93.30
2022-12-04T07:16:40.762Z,93.00
2022-12-04T07:19:10.422Z,92.80
2022-12-04T07:21:38.908Z,92.90
2022-12-04T07:24:06.294Z,92.80
2022-12-04T07:26:34.430Z,92.70
2022-12-04T07:29:01.656Z,92.70
2022-12-04T07:31:30.370Z,92.80
2022-12-04T07:33:58.874Z,92.70
2022-12-04T07:36:27.534Z,92.80
2022-12-04T07:38:58.712Z,92.80
2022-12-04T07:41:26.079Z,92.60
2022-12-04T07:43:57.430Z,92.80
2022-12-04T07:46:26.988Z,92.80
2022-12-04T07:48:58.859Z,93.00
2022-12-04T07:51:28.953Z,92.90
2022-12-04T07:54:03.525Z,92.80
2022-12-04T07:56:31.518Z,92.70
2022-12-04T07:59:00.344Z,92.80
2022-12-04T08:01:27.823Z,92.90
2022-12-04T08:03:57.715Z,92.80
2022-12-04T08:06:27.125Z,92.50
2022-12-04T08:08:54.949Z,92.50
2022-12-04T08:11:23.886Z,92.50
2022-12-04T08:14:02.110Z,92.50
2022-12-04T08:16:32.014Z,92.40
2022-12-04T08:19:00.547Z,92.40
2022-12-04T08:21:33.392Z,92.60
2022-12-04T08:24:01.607Z,92.40
2022-12-04T08:26:30.984Z,92.20
2022-12-04T08:29:00.886Z,92.40
2022-12-04T08:31:30.441Z,92.30
2022-12-04T08:33:59.577Z,92.30
2022-12-04T08:36:27.249Z,92.30
2022-12-04T08:38:57.518Z,92.10
2022-12-04T08:41:26.705Z,92.20
2022-12-04T08:43:55.437Z,92.20
2022-12-04T08:46:24.155Z,92.40
2022-12-04T08:48:51.474Z,92.30
2022-12-04T08:51:24.088Z,92.30
2022-12-04T08:54:00.776Z,92.40
2022-12-04T08:56:31.104Z,92.40
2022-12-04T08:59:01.139Z,92.30
2022-12-04T09:01:29.701Z,92.50
2022-12-04T09:03:58.006Z,92.50
2022-12-04T09:06:25.684Z,92.50
2022-12-04T09:08:54.987Z,92.30
2022-12-04T09:11:24.664Z,92.40
2022-12-04T09:13:56.150Z,92.40
2022-12-04T09:16:25.548Z,92.30
2022-12-04T09:18:53.686Z,92.30
2022-12-04T09:21:23.001Z,92.40
2022-12-04T09:23:51.181Z,92.50
2022-12-04T09:26:21.044Z,92.60
2022-12-04T09:28:49.276Z,92.70
2022-12-04T09:31:17.323Z,92.30
2022-12-04T09:33:45.032Z,92.40
2022-12-04T09:36:19.123Z,92.50
2022-12-04T09:38:49.269Z,92.60
2022-12-04T09:41:25.483Z,92.60
2022-12-04T09:44:04.060Z,92.70
2022-12-04T09:47:01.371Z,92.60
2022-12-04T09:49:37.187Z,92.50
2022-12-04T09:52:23.702Z,92.30
2022-12-04T09:54:53.252Z,92.30
2022-12-04T09:57:38.671Z,92.50
2022-12-04T10:00:11.375Z,92.40
2022-12-04T10:02:40.857Z,92.50
2022-12-04T10:05:21.990Z,92.50
2022-12-04T10:07:57.002Z,92.30
2022-12-04T10:10:57.252Z,92.60
2022-12-04T10:14:01.795Z,92.70
2022-12-04T10:16:59.764Z,92.90
2022-12-04T10:19:37.607Z,92.90
2022-12-04T10:22:33.536Z,92.80
2022-12-04T10:25:12.300Z,92.80
2022-12-04T10:27:55.665Z,92.90
2022-12-04T10:30:26.574Z,92.70
2022-12-04T10:33:23.056Z,92.50
2022-12-04T10:35:53.203Z,92.60
2022-12-04T10:38:49.177Z,92.40
2022-12-04T10:41:27.254Z,92.20
2022-12-04T10:43:55.301Z,92.10
2022-12-04T10:46:28.873Z,92.30
2022-12-04T10:49:18.117Z,92.40
2022-12-04T10:51:48.725Z,92.30
2022-12-04T10:54:23.707Z,92.50
2022-12-04T10:57:00.379Z,92.20
2022-12-04T10:59:28.552Z,92.30
2022-12-04T11:02:21.621Z,92.00
2022-12-04T11:04:55.761Z,92.20
2022-12-04T11:07:43.399Z,92.20
2022-12-04T11:10:30.035Z,92.30
2022-12-04T11:13:06.060Z,92.30
2022-12-04T11:15:42.303Z,92.60
2022-12-04T11:18:17.394Z,92.70
2022-12-04T11:20:52.038Z,92.80
2022-12-04T11:23:19.698Z,92.90
2022-12-04T11:26:03.751Z,93.10
2022-12-04T11:28:41.839Z,93.10
2022-12-04T11:31:16.651Z,92.90
2022-12-04T11:34:09.045Z,92.60
2022-12-04T11:36:41.092Z,92.60
2022-12-04T11:39:19.290Z,92.60
2022-12-04T11:41:46.720Z,92.60
2022-12-04T11:44:37.406Z,92.80
2022-12-04T11:47:07.246Z,92.30
2022-12-04T11:49:42.276Z,92.40
2022-12-04T11:52:47.962Z,92.20
2022-12-04T11:55:32.628Z,92.20
2022-12-04T11:58:33.241Z,92.20
2022-12-04T12:01:10.671Z,91.70
2022-12-04T12:04:21.042Z,91.80
2022-12-04T12:07:16.373Z,91.80
2022-12-04T12:09:53.477Z,92.20
2022-12-04T12:12:26.973Z,92.30
2022-12-04T12:15:07.375Z,92.20
2022-12-04T12:18:00.721Z,92.30
2022-12-04T12:20:37.900Z,92.00
2022-12-04T12:23:11.197Z,92.10
2022-12-04T12:25:59.909Z,92.20
2022-12-04T12:28:54.915Z,92.40
2022-12-04T12:31:27.717Z,92.60
2022-12-04T12:34:09.959Z,92.40
2022-12-04T12:36:44.166Z,92.50
2022-12-04T12:39:38.740Z,92.30
2022-12-04T12:42:17.287Z,92.30
2022-12-04T12:44:44.297Z,92.20
2022-12-04T12:47:19.718Z,92.20
2022-12-04T12:50:02.273Z,92.10
2022-12-04T12:52:48.161Z,92.40
2022-12-04T12:55:29.664Z,92.80
2022-12-04T12:58:00.367Z,92.50
2022-12-04T13:00:30.298Z,92.60
2022-12-04T13:03:26.635Z,92.60
2022-12-04T13:06:00.464Z,92.20
2022-12-04T13:08:30.907Z,91.90
2022-12-04T13:11:13.750Z,92.00
2022-12-04T13:13:53.288Z,92.20
2022-12-04T13:16:29.343Z,92.30
2022-12-04T13:19:06.137Z,92.70
2022-12-04T13:21:47.412Z,92.60
2022-12-04T13:24:20.498Z,92.60
2022-12-04T13:26:50.340Z,92.50
2022-12-04T13:29:35.908Z,92.60
2022-12-04T13:32:27.215Z,92.40
2022-12-04T13:35:03.800Z,92.40
2022-12-04T13:37:42.935Z,92.40
2022-12-04T13:40:16.043Z,92.60
2022-12-04T13:42:43.727Z,92.70
2022-12-04T13:45:23.819Z,92.80
2022-12-04T13:48:02.560Z,92.70
2022-12-04T13:50:32.863Z,92.70
2022-12-04T13:53:01.368Z,93.00
2022-12-04T13:55:41.192Z,92.90
2022-12-04T13:58:11.495Z,92.90
2022-12-04T14:00:43.886Z,93.10
2022-12-04T14:03:23.163Z,93.10
2022-12-04T14:05:50.993Z,93.30
2022-12-04T14:08:25.665Z,93.50
2022-12-04T14:11:09.487Z,93.40
2022-12-04T14:13:47.336Z,93.20
2022-12-04T14:16:25.888Z,93.10
2022-12-04T14:19:01.449Z,93.20
2022-12-04T14:21:47.898Z,92.90
2022-12-04T14:24:32.225Z,92.80
2022-12-04T14:27:15.329Z,92.70
2022-12-04T14:29:49.559Z,92.70
2022-12-04T14:32:26.534Z,92.80
2022-12-04T14:34:55.221Z,93.00
2022-12-04T14:37:30.677Z,92.70
2022-12-04T14:39:59.295Z,92.70
2022-12-04T14:42:37.700Z,92.60
2022-12-04T14:45:09.199Z,92.90
2022-12-04T14:47:58.185Z,92.80
2022-12-04T14:50:47.608Z,92.50
2022-12-04T14:53:48.981Z,92.70
2022-12-04T14:56:27.798Z,92.80
2022-12-04T14:58:55.983Z,93.00
2022-12-04T15:01:29.670Z,93.00
2022-12-04T15:04:01.711Z,93.00
2022-12-04T15:06:31.528Z,92.80
2022-12-04T15:09:19.866Z,92.80
2022-12-04T15:12:11.246Z,92.50
2022-12-04T15:14:47.380Z,92.20
2022-12-04T15:17:16.763Z,92.00
2022-12-04T15:19:44.726Z,91.90
2022-12-04T15:22:27.361Z,91.80
2022-12-04T15:24:55.587Z,91.70
2022-12-04T15:27:32.788Z,91.70
2022-12-04T15:30:03.381Z,91.30
2022-12-04T15:32:32.698Z,91.30
2022-12-04T15:35:09.732Z,91.00
2022-12-04T15:37:40.471Z,91.00
2022-12-04T15:40:30.896Z,91.20
2022-12-04T15:43:16.760Z,91.20
2022-12-04T15:45:46.908Z,91.20
2022-12-04T15:48:30.746Z,91.30
2022-12-04T15:51:04.214Z,91.50
2022-12-04T15:53:41.604Z,91.30
2022-12-04T15:56:19.355Z,91.00
2022-12-04T15:59:01.366Z,90.70
2022-12-04T16:01:39.821Z,90.70
2022-12-04T16:04:19.424Z,90.90
2022-12-04T16:06:49.096Z,91.10
2022-12-04T16:09:23.506Z,91.20
2022-12-04T16:12:18.586Z,91.00
2022-12-04T16:14:45.690Z,91.10
2022-12-04T16:17:14.199Z,91.40
2022-12-04T16:19:42.216Z,91.40
2022-12-04T16:22:20.771Z,91.30
2022-12-04T16:24:48.021Z,91.40
2022-12-04T16:27:20.200Z,91.20
2022-12-04T16:29:47.328Z,91.40
2022-12-04T16:32:18.205Z,91.60
2022-12-04T16:34:46.366Z,91.40
2022-12-04T16:37:19.692Z,91.60
2022-12-04T16:39:47.779Z,91.60
2022-12-04T16:42:27.228Z,91.50
2022-12-04T16:44:54.888Z,91.70
2022-12-04T16:47:22.688Z,91.60
2022-12-04T16:49:54.019Z,91.30
2022-12-04T16:52:22.274Z,91.20
2022-12-04T16:54:49.433Z,91.20
2022-12-04T16:57:16.819Z,91.30
2022-12-04T16:59:43.891Z,91.30
2022-12-04T17:02:23.987Z,91.40
2022-12-04T17:04:55.811Z,91.30
2022-12-04T17:07:25.194Z,91.50
2022-12-04T17:09:52.468Z,91.60
2022-12-04T17:12:22.576Z,91.80
2022-12-04T17:14:52.881Z,91.90
2022-12-04T17:17:20.456Z,92.00
2022-12-04T17:19:47.937Z,91.80
2022-12-04T17:22:16.321Z,91.70
2022-12-04T17:24:49.162Z,91.80
2022-12-04T17:27:20.449Z,92.00
2022-12-04T17:29:48.083Z,92.00
2022-12-04T17:32:15.934Z,92.10
2022-12-04T17:34:46.556Z,91.90
2022-12-04T17:37:13.746Z,92.00
2022-12-04T17:39:40.980Z,91.90
2022-12-04T17:42:08.306Z,91.70
2022-12-04T17:44:35.260Z,91.80
2022-12-04T17:47:02.692Z,92.10
2022-12-04T17:49:31.118Z,92.30
2022-12-04T17:51:58.419Z,92.10
2022-12-04T17:54:25.665Z,92.20
2022-12-04T17:56:57.608Z,92.40
2022-12-04T17:59:25.161Z,92.20
2022-12-04T18:01:56.266Z,91.90
2022-12-04T18:04:25.174Z,91.90
2022-12-04T18:06:52.813Z,91.90
2022-12-04T18:09:21.128Z,91.80
2022-12-04T18:11:48.985Z,92.10
2022-12-04T18:14:19.028Z,92.20
2022-12-04T18:16:48.202Z,91.90
2022-12-04T18:19:15.510Z,92.00
2022-12-04T18:21:48.894Z,92.30
2022-12-04T18:24:16.843Z,92.10
2022-12-04T18:26:46.092Z,92.30
2022-12-04T18:29:14.916Z,92.30
2022-12-04T18:31:42.370Z,92.40
2022-12-04T18:34:10.500Z,92.40
2022-12-04T18:36:40.176Z,92.30
2022-12-04T18:39:14.902Z,92.30
2022-12-04T18:41:42.471Z,92.60
2022-12-04T18:44:09.781Z,93.10
2022-12-04T18:46:39.716Z,93.10
2022-12-04T18:49:09.318Z,92.90
2022-12-04T18:51:40.305Z,93.10
2022-12-04T18:54:15.552Z,93.40
2022-12-04T18:56:43.958Z,93.50
2022-12-04T18:59:25.761Z,93.50
2022-12-04T19:01:54.472Z,93.70
2022-12-04T19:04:24.048Z,93.90
2022-12-04T19:06:56.180Z,93.90
2022-12-04T19:10:02.522Z,94.00
2022-12-04T19:12:17.615Z,93.80
2022-12-04T19:14:44.879Z,93.70
2022-12-04T19:17:12.232Z,93.70
2022-12-04T19:19:39.266Z,93.80
2022-12-04T19:22:06.226Z,94.10
2022-12-04T19:24:33.348Z,93.80
2022-12-04T19:27:01.896Z,93.70
2022-12-04T19:29:29.041Z,93.50
2022-12-04T19:31:59.256Z,93.70
2022-12-04T19:34:27.368Z,93.80
2022-12-04T19:36:55.339Z,93.70
2022-12-04T19:39:22.503Z,93.60
2022-12-04T19:41:49.827Z,93.40
2022-12-04T19:44:47.266Z,93.30
2022-12-04T19:47:04.536Z,93.50
2022-12-04T19:49:31.935Z,93.50
2022-12-04T19:51:59.100Z,93.50
2022-12-04T19:54:26.321Z,93.60
2022-12-04T19:56:53.838Z,93.60
2022-12-04T19:59:21.466Z,93.80
2022-12-04T20:01:48.936Z,93.70
2022-12-04T20:04:16.158Z,93.90
2022-12-04T20:06:47.259Z,94.00
2022-12-04T20:09:19.164Z,94.10
2022-12-04T20:11:46.751Z,94.20
2022-12-04T20:14:14.264Z,94.20
2022-12-04T20:16:43.361Z,94.00
2022-12-04T20:19:14.968Z,93.90
2022-12-04T20:21:43.114Z,93.70
2022-12-04T20:24:13.047Z,93.40
2022-12-04T20:26:42.639Z,93.50
2022-12-04T20:29:13.388Z,93.70
2022-12-04T20:31:44.478Z,94.00
2022-12-04T20:34:15.149Z,94.30
2022-12-04T20:36:44.404Z,94.40
2022-12-04T20:39:14.218Z,93.90
2022-12-04T20:41:41.663Z,93.90
2022-12-04T20:44:12.656Z,94.30
2022-12-04T20:46:40.897Z,94.20
2022-12-04T20:49:14.635Z,94.00
2022-12-04T20:51:48.243Z,93.70
2022-12-04T20:54:20.405Z,93.40
2022-12-04T20:56:50.323Z,93.80
2022-12-04T20:59:19.005Z,94.00
2022-12-04T21:01:50.979Z,93.50
2022-12-04T21:04:18.537Z,93.50
2022-12-04T21:06:47.390Z,93.70
2022-12-04T21:09:21.028Z,93.80
2022-12-04T21:11:54.360Z,93.60
2022-12-04T21:14:48.685Z,93.70
2022-12-04T21:17:20.835Z,93.60
2022-12-04T21:19:49.808Z,93.80
2022-12-04T21:22:19.135Z,94.10
2022-12-04T21:24:46.716Z,93.90
2022-12-04T21:27:20.442Z,93.80
2022-12-04T21:29:48.863Z,93.50
2022-12-04T21:32:19.414Z,93.50
2022-12-04T21:34:46.976Z,93.50
2022-12-04T21:37:14.427Z,93.70
2022-12-04T21:39:47.727Z,93.80
2022-12-04T21:42:33.205Z,93.50
2022-12-04T21:45:01.535Z,93.70
2022-12-04T21:47:32.881Z,93.60
2022-12-04T21:50:03.863Z,93.60
2022-12-04T21:52:31.597Z,93.70
2022-12-04T21:54:58.788Z,93.50
2022-12-04T21:57:28.985Z,93.50
2022-12-04T21:59:59.435Z,93.70
2022-12-04T22:02:26.781Z,93.90
2022-12-04T22:04:56.761Z,94.10
2022-12-04T22:07:24.142Z,93.90
2022-12-04T22:09:51.201Z,94.10
2022-12-04T22:12:49.201Z,94.20
2022-12-04T22:15:05.637Z,93.70
2022-12-04T22:17:33.021Z,93.70
2022-12-04T22:20:00.347Z,93.80
2022-12-04T22:22:27.623Z,93.50
2022-12-04T22:24:55.410Z,93.30
2022-12-04T22:27:22.460Z,93.20
2022-12-04T22:30:02.411Z,92.70
2022-12-04T22:32:31.754Z,92.40
2022-12-04T22:34:59.112Z,92.50
2022-12-04T22:37:26.243Z,92.90
2022-12-04T22:39:53.400Z,92.60
2022-12-04T22:42:23.831Z,92.70
2022-12-04T22:44:51.862Z,92.50
2022-12-04T22:47:19.375Z,92.50
2022-12-04T22:49:47.620Z,92.20
2022-12-04T22:52:15.600Z,92.50
2022-12-04T22:54:45.707Z,92.40
2022-12-04T22:57:13.361Z,92.40
2022-12-04T22:59:40.473Z,92.00
2022-12-04T23:02:07.781Z,92.00
2022-12-04T23:04:34.883Z,92.50
2022-12-04T23:07:02.341Z,92.70
2022-12-04T23:09:30.320Z,92.60
2022-12-04T23:11:57.930Z,92.60
2022-12-04T23:14:27.217Z,92.70
2022-12-04T23:16:55.117Z,93.00
2022-12-04T23:19:22.643Z,93.00
2022-12-04T23:21:56.966Z,93.10
2022-12-04T23:24:25.270Z,93.20
2022-12-04T23:26:53.023Z,93.10
2022-12-04T23:32:07.807Z,93.20
2022-12-04T23:34:35.328Z,92.80
2022-12-04T23:37:02.418Z,92.60
2022-12-04T23:39:30.250Z,92.50
2022-12-04T23:42:00.640Z,92.50
2022-12-04T23:44:27.977Z,92.40
2022-12-04T23:46:55.448Z,92.50
2022-12-04T23:49:22.854Z,92.60
2022-12-04T23:51:50.060Z,92.90
2022-12-04T23:54:17.402Z,92.90
2022-12-04T23:56:44.833Z,92.80
2022-12-04T23:59:11.858Z,92.70
